Flora, MS (39071)

8:45 PM CDT on May 19, 2019 (GMT -0500)
North Fourth St. | | Change Station
Active Advisory: Flood Warning

Elev 266 ft 32.55 °N, 90.32 °W | Updated 15 seconds ago

Partly Cloudy
Partly Cloudy
73 °F
Feels Like 73 °F
N
0
Wind Variable Wind from South
Gusts 0.0 mph

Today
High -- | Low -- °F
--% Chance of Precip.
Yesterday
High -- | Low -- °F
Precip. -- in
Pressure 29.91 in
Visibility 10.0 miles
Clouds Few 4200 ft
Dew Point 72 °F
Humidity 95%
Rainfall 1.11 in
Snow Depth Not available.
6:00 AM 7:55 PM
Full, 98% visible
METAR KHKS 200053Z 14004KT 10SM FEW042 24/22 A2993 RMK AO2 SLP128 T02390217
Pressure 29.91 in
Visibility 10.0 miles
Clouds Few 4200 ft
Dew Point 72 °F
Humidity 95%
Rainfall 1.11 in
Snow Depth Not available.
6:00 AM 7:55 PM
Full, 98% visible
METAR KHKS 200053Z 14004KT 10SM FEW042 24/22 A2993 RMK AO2 SLP128 T02390217

Get Your Daily Forecast Email!

Thanks for signing up!

Be on the lookout for a verification email in your inbox.

You'll start receiving severe weather alerts in your inbox..

×

10-Day Weather Forecast

Almanac

Astronomy

May. 19, 2019 Rise Set
Actual Time
Civil Twilight
Nautical Twilight
Astronomical Twilight
Moon
Length of Visible Light
Length of Day
Tomorrow will be .
, % of the Moon is Illuminated

Today's Extremes

State Highs State Lows

Community

WunderPhotos

Category 6

Welcome to Category 6. This is the collective home for Weather Underground's featured writeups by Dr. Jeff Masters (right), Bob Henson (left), Chris Burt, and other regular contributors.

Nearby

Air Quality

  Air Quality AQ Index Pollutant
Not available.

Snow Depth

Station Depth Elevation

Earthquake Activity

City Distance Mag. Time & Date
Minimum magnitude displayed is 2.5.

Coastal Water Temperatures

Place Temperature

Stations

Nearby Weather Stations

Station Location Temp. Windchill Dew Point Humidity Wind Precip. Elev Updated Type
                   

Watches & Warnings

Flood Warning
Issued: 7:44 PM CDT May. 19, 2019 – National Weather Service


The Flood Warning continues for
the Big Black River near Bentonia
* until late Wednesday night.
* At 7:00 PM Sunday the stage was 24.2 feet.
* Minor flooding is occurring and minor flooding is forecast.
* Flood stage is 22.0 feet.
* Forecast... the river will continue rising to near 24.3 feet just
after midnight tonight.
* Impact... at 23.5 feet... agricultural land near the river begins to
flood.


              Flood observed forecast 7 am crest
location stg stg day time Mon Tue Wed crest time date

Lower Big Black River
Bentonia 22 24.2 sun 07 PM 24.3 23.7 22.5 24.3 01 am 05/20




Lat... Lon 3256 9064 3281 9012 3291 9006 3285 8987
      3272 8996 3245 9052